Time;durP1;ratioP1;P1;durP2;ratioP2;P2;SDS_P1;SDS_P2;PMS_P1;PMS_P2;Temp;Humidity;BMP_temperature;BMP_pressure;BME280_temperature;BME280_humidity;BME280_pressure;Samples;Min_cycle;Max_cycle;Signal;HPM_P1;HPM_P2
2022/09/12 00:00:42;;;;;;;;;;;14.40;99.90;;;;;;5054529;28;19920;-83
2022/09/12 00:03:08;;;;;;;;;;;14.40;99.90;;;;;;5036766;28;19916;-83
2022/09/12 00:05:33;;;;;;;;;;;14.40;99.90;;;;;;5029858;28;20664;-83
2022/09/12 00:07:59;;;;;;;;;;;14.50;99.90;;;;;;5038994;28;19931;-83
2022/09/12 00:10:25;;;;;;;;;;;14.40;99.90;;;;;;5045794;28;20381;-83
2022/09/12 00:12:51;;;;;;;;;;;14.40;99.90;;;;;;5047133;28;19923;-83
2022/09/12 00:15:17;;;;;;;;;;;14.30;99.90;;;;;;5062780;28;19916;-83
2022/09/12 00:17:43;;;;;;;;;;;14.10;99.90;;;;;;5054075;28;19966;-84
2022/09/12 00:20:09;;;;;;;;;;;14.00;99.90;;;;;;5051656;28;20005;-83
2022/09/12 00:22:34;;;;;;;;;;;14.10;99.90;;;;;;5034901;28;20017;-83
2022/09/12 00:25:00;;;;;;;;;;;14.00;99.90;;;;;;5046352;28;19963;-83
2022/09/12 00:27:26;;;;;;;;;;;13.80;99.90;;;;;;5052344;28;19917;-82
2022/09/12 00:29:52;;;;;;;;;;;13.80;99.90;;;;;;5037103;28;20023;-82
2022/09/12 00:32:17;;;;;;;;;;;13.70;99.90;;;;;;5054115;28;19971;-82
2022/09/12 00:34:43;;;;;;;;;;;13.60;99.90;;;;;;5053802;28;20279;-82
2022/09/12 00:37:08;;;;;;;;;;;13.70;99.90;;;;;;5054981;28;19969;-82
2022/09/12 00:39:34;;;;;;;;;;;13.60;99.90;;;;;;5052811;28;19926;-82
2022/09/12 00:41:59;;;;;;;;;;;13.50;99.90;;;;;;5025361;28;19995;-82
2022/09/12 00:44:25;;;;;;;;;;;13.50;99.90;;;;;;5036807;28;19916;-82
2022/09/12 00:46:50;;;;;;;;;;;13.50;99.90;;;;;;5053694;28;19924;-82
2022/09/12 00:49:26;;;;;;;;;;;13.40;99.90;;;;;;5053552;28;19970;-82
2022/09/12 00:51:59;;;;;;;;;;;13.30;99.90;;;;;;5049986;28;19916;-82
2022/09/12 00:54:26;;;;;;;;;;;13.30;99.90;;;;;;5053975;28;19947;-81
2022/09/12 00:56:54;;;;;;;;;;;13.30;99.90;;;;;;5035974;28;20283;-82
2022/09/12 00:59:24;;;;;;;;;;;13.30;99.90;;;;;;5035037;28;19958;-82
2022/09/12 01:01:50;;;;;;;;;;;13.30;99.90;;;;;;5053921;28;19998;-82
2022/09/12 01:04:17;;;;;;;;;;;13.20;99.90;;;;;;5053467;28;19942;-83
2022/09/12 01:06:43;;;;;;;;;;;13.20;99.90;;;;;;5045267;28;19978;-82
2022/09/12 01:09:14;;;;;;;;;;;13.30;99.90;;;;;;5049473;28;20375;-82
2022/09/12 01:11:40;;;;;;;;;;;13.20;99.90;;;;;;5045292;28;19916;-82
2022/09/12 01:14:06;;;;;;;;;;;13.10;99.90;;;;;;5036379;28;19973;-82
2022/09/12 01:16:34;;;;;;;;;;;13.10;99.90;;;;;;5053115;28;20006;-82
2022/09/12 01:19:03;;;;;;;;;;;13.10;99.90;;;;;;5053368;28;19920;-83
2022/09/12 01:21:35;;;;;;;;;;;13.00;99.90;;;;;;5053018;28;19946;-83
2022/09/12 01:24:25;;;;;;;;;;;13.10;99.90;;;;;;5036126;28;19916;-82
2022/09/12 01:27:09;;;;;;;;;;;13.10;99.90;;;;;;5034959;28;20383;-84
2022/09/12 01:29:44;;;;;;;;;;;13.00;99.90;;;;;;5049786;28;20018;-83
2022/09/12 01:32:12;;;;;;;;;;;13.10;99.90;;;;;;5024603;28;20368;-82
2022/09/12 01:34:41;;;;;;;;;;;13.10;99.90;;;;;;5053461;28;19963;-82
2022/09/12 01:37:06;;;;;;;;;;;13.00;99.90;;;;;;5057438;28;19920;-82
2022/09/12 01:39:41;;;;;;;;;;;13.10;99.90;;;;;;5056511;28;20032;-83
2022/09/12 01:42:09;;;;;;;;;;;13.00;99.90;;;;;;5035063;28;20275;-83
2022/09/12 01:44:53;;;;;;;;;;;13.20;99.90;;;;;;5060401;28;20713;-84
2022/09/12 01:47:19;;;;;;;;;;;13.20;99.90;;;;;;5052800;28;20319;-84
2022/09/12 01:49:57;;;;;;;;;;;13.10;99.90;;;;;;5052102;28;19928;-83
2022/09/12 01:52:29;;;;;;;;;;;13.00;99.90;;;;;;5051668;28;19916;-83
2022/09/12 01:55:01;;;;;;;;;;;13.20;99.90;;;;;;5034153;28;20000;-83
2022/09/12 01:57:31;;;;;;;;;;;13.10;99.90;;;;;;5042632;28;19960;-83
2022/09/12 01:59:59;;;;;;;;;;;13.20;99.90;;;;;;5071615;28;19920;-83
2022/09/12 02:02:29;;;;;;;;;;;13.20;99.90;;;;;;5052085;28;20002;-84
2022/09/12 02:05:07;;;;;;;;;;;13.30;99.90;;;;;;5037459;28;19924;-84
2022/09/12 02:07:37;;;;;;;;;;;13.20;99.90;;;;;;5053119;28;19999;-83
2022/09/12 02:10:12;;;;;;;;;;;13.40;99.90;;;;;;5053376;28;19942;-84
2022/09/12 02:12:58;;;;;;;;;;;13.40;99.90;;;;;;5053131;28;19920;-84
2022/09/12 02:15:28;;;;;;;;;;;13.40;99.90;;;;;;5032636;28;20381;-84
2022/09/12 02:17:55;;;;;;;;;;;13.40;99.90;;;;;;5043836;28;19963;-82
2022/09/12 02:20:33;;;;;;;;;;;13.30;99.90;;;;;;5051323;28;19928;-82
2022/09/12 02:22:59;;;;;;;;;;;13.20;99.90;;;;;;5051553;28;19943;-83
2022/09/12 02:25:26;;;;;;;;;;;13.40;99.90;;;;;;5034868;28;20379;-83
2022/09/12 02:28:02;;;;;;;;;;;13.20;99.90;;;;;;5047423;28;20007;-83
2022/09/12 02:30:38;;;;;;;;;;;13.10;99.90;;;;;;5045934;28;20363;-83
2022/09/12 02:33:25;;;;;;;;;;;13.10;99.90;;;;;;5035202;28;20000;-83
2022/09/12 02:35:54;;;;;;;;;;;13.20;99.90;;;;;;4997739;28;20310;-83
2022/09/12 02:38:23;;;;;;;;;;;13.00;99.90;;;;;;5035573;28;19944;-83
2022/09/12 02:40:49;;;;;;;;;;;13.00;99.90;;;;;;5051775;28;19924;-82
2022/09/12 02:43:14;;;;;;;;;;;13.00;99.90;;;;;;5034169;28;19939;-82
2022/09/12 02:45:40;;;;;;;;;;;13.00;99.90;;;;;;5034782;28;19952;-83
2022/09/12 02:48:24;;;;;;;;;;;12.90;99.90;;;;;;5032408;28;19924;-83
2022/09/12 02:50:50;;;;;;;;;;;13.10;99.90;;;;;;5035125;28;19921;-83
2022/09/12 02:53:16;;;;;;;;;;;13.10;99.90;;;;;;5047683;28;19927;-82
2022/09/12 02:55:42;;;;;;;;;;;13.00;99.90;;;;;;5048062;28;20006;-82
2022/09/12 02:58:12;;;;;;;;;;;13.00;99.90;;;;;;5022302;28;19991;-83
2022/09/12 03:00:46;;;;;;;;;;;13.20;99.90;;;;;;5042181;28;19920;-83
2022/09/12 03:03:18;;;;;;;;;;;13.10;99.90;;;;;;5049249;28;19920;-82
2022/09/12 03:05:50;;;;;;;;;;;13.40;99.90;;;;;;5030117;28;19917;-82
2022/09/12 03:08:44;;;;;;;;;;;13.30;99.90;;;;;;5050814;28;20037;-83
2022/09/12 03:11:29;;;;;;;;;;;13.30;99.90;;;;;;5051126;28;19916;-82
2022/09/12 03:14:14;;;;;;;;;;;13.60;99.90;;;;;;5045965;28;20434;-82
2022/09/12 03:16:52;;;;;;;;;;;13.40;99.90;;;;;;5051304;28;20330;-83
2022/09/12 03:19:20;;;;;;;;;;;13.60;99.90;;;;;;5051164;28;19916;-83
2022/09/12 03:22:05;;;;;;;;;;;13.60;99.90;;;;;;5034034;28;19922;-82
2022/09/12 03:24:42;;;;;;;;;;;13.40;99.90;;;;;;5050943;28;20402;-82
2022/09/12 03:27:15;;;;;;;;;;;13.40;99.90;;;;;;5050461;28;20007;-83
2022/09/12 03:29:42;;;;;;;;;;;13.70;99.90;;;;;;5052136;28;20344;-83
2022/09/12 03:32:08;;;;;;;;;;;13.70;99.90;;;;;;5047844;28;19966;-83
2022/09/12 03:34:33;;;;;;;;;;;13.70;99.90;;;;;;5055947;28;19952;-83
2022/09/12 03:36:59;;;;;;;;;;;13.70;99.90;;;;;;5037545;28;20517;-82
2022/09/12 03:39:25;;;;;;;;;;;13.60;99.90;;;;;;5046923;28;19927;-81
2022/09/12 03:41:51;;;;;;;;;;;13.60;99.90;;;;;;5037527;28;19928;-82
2022/09/12 03:44:17;;;;;;;;;;;13.40;99.90;;;;;;5055236;28;20249;-82
2022/09/12 03:46:43;;;;;;;;;;;13.60;99.90;;;;;;5054583;28;19966;-82
2022/09/12 03:49:09;;;;;;;;;;;13.60;99.90;;;;;;5045828;28;19987;-82
2022/09/12 03:51:35;;;;;;;;;;;13.40;99.90;;;;;;5043939;28;20025;-82
2022/09/12 03:54:01;;;;;;;;;;;13.50;99.90;;;;;;5054100;28;19923;-83
2022/09/12 03:56:26;;;;;;;;;;;13.60;99.90;;;;;;5038970;28;20367;-83
2022/09/12 03:58:52;;;;;;;;;;;13.50;99.90;;;;;;5037722;28;19920;-83
2022/09/12 04:01:18;;;;;;;;;;;13.20;99.90;;;;;;5038027;28;19924;-83
2022/09/12 04:03:45;;;;;;;;;;;13.20;99.90;;;;;;5055631;28;19916;-83
2022/09/12 04:06:13;;;;;;;;;;;13.20;99.90;;;;;;5052992;28;19925;-83
2022/09/12 04:08:39;;;;;;;;;;;13.50;99.90;;;;;;5054041;28;19924;-82
2022/09/12 04:11:07;;;;;;;;;;;13.20;99.90;;;;;;5055074;28;19920;-83
2022/09/12 04:13:33;;;;;;;;;;;13.30;99.90;;;;;;5054428;28;20333;-83
2022/09/12 04:15:59;;;;;;;;;;;13.40;99.90;;;;;;5054187;28;20030;-83
2022/09/12 04:18:25;;;;;;;;;;;13.40;99.90;;;;;;5053869;28;20431;-83
2022/09/12 04:20:51;;;;;;;;;;;13.20;99.90;;;;;;5053673;28;19991;-83
2022/09/12 04:23:16;;;;;;;;;;;13.10;99.90;;;;;;5041215;28;19927;-83
2022/09/12 04:25:42;;;;;;;;;;;13.30;99.90;;;;;;5052555;28;19916;-82
2022/09/12 04:28:07;;;;;;;;;;;13.30;99.90;;;;;;5030751;28;20364;-82
2022/09/12 04:30:33;;;;;;;;;;;13.10;99.90;;;;;;5050914;28;19982;-82
2022/09/12 04:32:59;;;;;;;;;;;13.30;99.90;;;;;;5054237;28;19927;-83
2022/09/12 04:35:24;;;;;;;;;;;13.30;99.90;;;;;;5035756;28;19921;-84
2022/09/12 04:37:50;;;;;;;;;;;13.10;99.90;;;;;;5053287;28;19920;-84
2022/09/12 04:40:16;;;;;;;;;;;13.30;99.90;;;;;;5052789;28;19960;-84
2022/09/12 04:42:41;;;;;;;;;;;13.10;99.90;;;;;;5048387;28;19923;-84
2022/09/12 04:45:07;;;;;;;;;;;13.20;99.90;;;;;;5028844;28;19932;-84
2022/09/12 04:47:32;;;;;;;;;;;13.20;99.90;;;;;;5053612;28;20352;-83
2022/09/12 04:49:58;;;;;;;;;;;13.10;99.90;;;;;;5052715;28;19943;-83
2022/09/12 04:52:24;;;;;;;;;;;13.30;99.90;;;;;;5054205;28;19920;-83
2022/09/12 04:54:49;;;;;;;;;;;13.40;99.90;;;;;;5053258;28;19920;-84
2022/09/12 04:57:15;;;;;;;;;;;13.30;99.90;;;;;;5053128;28;19916;-84
2022/09/12 04:59:40;;;;;;;;;;;13.30;99.90;;;;;;5053248;28;19931;-84
2022/09/12 05:02:06;;;;;;;;;;;13.30;99.90;;;;;;5052025;28;19982;-84
2022/09/12 05:04:31;;;;;;;;;;;13.50;99.90;;;;;;5053766;28;19916;-83
2022/09/12 05:06:57;;;;;;;;;;;13.50;99.90;;;;;;5029650;28;19948;-83
2022/09/12 05:09:23;;;;;;;;;;;13.40;99.90;;;;;;5036281;28;19927;-82
2022/09/12 05:11:48;;;;;;;;;;;13.40;99.90;;;;;;5047847;28;20388;-84
2022/09/12 05:14:14;;;;;;;;;;;13.60;99.90;;;;;;5044090;28;19920;-83
2022/09/12 05:16:40;;;;;;;;;;;13.70;99.90;;;;;;5051442;28;19921;-83
2022/09/12 05:19:05;;;;;;;;;;;13.80;99.90;;;;;;5037431;28;19928;-83
2022/09/12 05:21:31;;;;;;;;;;;13.60;99.90;;;;;;5047982;28;20014;-83
2022/09/12 05:24:00;;;;;;;;;;;13.80;99.90;;;;;;5052241;28;19936;-83
2022/09/12 05:26:26;;;;;;;;;;;13.80;99.90;;;;;;5053058;28;19924;-83
2022/09/12 05:28:52;;;;;;;;;;;13.80;99.90;;;;;;5032189;28;19921;-82
2022/09/12 05:31:19;;;;;;;;;;;13.90;99.90;;;;;;5042889;28;19955;-82
2022/09/12 05:33:45;;;;;;;;;;;13.90;99.90;;;;;;5044049;28;19924;-83
2022/09/12 05:36:12;;;;;;;;;;;13.80;99.90;;;;;;5051712;28;20334;-83
2022/09/12 05:38:38;;;;;;;;;;;13.80;99.90;;;;;;5052204;28;19924;-83
2022/09/12 05:41:05;;;;;;;;;;;13.90;99.90;;;;;;5052370;28;20292;-82
2022/09/12 05:43:32;;;;;;;;;;;13.80;99.90;;;;;;5064984;28;19920;-83
2022/09/12 05:46:07;;;;;;;;;;;13.80;99.90;;;;;;5051945;28;20003;-83
2022/09/12 05:48:34;;;;;;;;;;;14.20;99.90;;;;;;5032909;28;19930;-84
2022/09/12 05:51:05;;;;;;;;;;;13.90;99.90;;;;;;5035287;28;19916;-83
2022/09/12 05:53:31;;;;;;;;;;;14.10;99.90;;;;;;5039320;28;20325;-83
2022/09/12 05:56:00;;;;;;;;;;;13.90;99.90;;;;;;5051102;28;19916;-82
2022/09/12 05:58:26;;;;;;;;;;;14.20;99.90;;;;;;5038473;28;20355;-84
2022/09/12 06:00:52;;;;;;;;;;;13.90;99.90;;;;;;5052877;28;19922;-83
2022/09/12 06:03:17;;;;;;;;;;;14.20;99.90;;;;;;5052507;28;20410;-83
2022/09/12 06:05:43;;;;;;;;;;;14.10;99.90;;;;;;5050793;28;20279;-82
2022/09/12 06:08:08;;;;;;;;;;;14.00;99.90;;;;;;5052107;28;19958;-82
2022/09/12 06:10:34;;;;;;;;;;;14.10;99.90;;;;;;5052162;28;19920;-82
2022/09/12 06:13:00;;;;;;;;;;;14.30;99.90;;;;;;5050382;28;19927;-82
2022/09/12 06:15:25;;;;;;;;;;;14.30;99.90;;;;;;5051977;28;19927;-82
2022/09/12 06:17:51;;;;;;;;;;;14.10;99.90;;;;;;5051364;28;20283;-83
2022/09/12 06:20:17;;;;;;;;;;;14.10;99.90;;;;;;5035694;28;19924;-83
2022/09/12 06:22:43;;;;;;;;;;;14.10;99.90;;;;;;5051215;28;19920;-82
2022/09/12 06:25:08;;;;;;;;;;;14.30;99.90;;;;;;5050824;28;19920;-82
2022/09/12 06:27:34;;;;;;;;;;;14.50;99.90;;;;;;5035226;28;19920;-83
2022/09/12 06:30:00;;;;;;;;;;;14.50;99.90;;;;;;5051240;28;20396;-84
2022/09/12 06:32:28;;;;;;;;;;;14.50;99.90;;;;;;5051967;28;20356;-83
2022/09/12 06:34:54;;;;;;;;;;;14.40;99.90;;;;;;5052166;28;19970;-83
2022/09/12 06:37:19;;;;;;;;;;;14.40;99.90;;;;;;5048893;28;20338;-83
2022/09/12 06:39:45;;;;;;;;;;;14.60;99.90;;;;;;5040962;28;19985;-83
2022/09/12 06:42:12;;;;;;;;;;;14.70;99.90;;;;;;5014819;28;19968;-84
2022/09/12 06:44:38;;;;;;;;;;;14.70;99.90;;;;;;5052138;28;19977;-83
2022/09/12 06:47:03;;;;;;;;;;;14.40;99.90;;;;;;5051217;28;20299;-84
2022/09/12 06:49:30;;;;;;;;;;;14.50;99.90;;;;;;5051079;28;19999;-83
2022/09/12 06:51:56;;;;;;;;;;;14.70;99.90;;;;;;5046863;28;19916;-83
2022/09/12 06:54:22;;;;;;;;;;;14.60;99.90;;;;;;5050820;28;19916;-83
2022/09/12 06:56:47;;;;;;;;;;;14.70;99.90;;;;;;5050556;28;19955;-83
2022/09/12 06:59:13;;;;;;;;;;;14.80;99.90;;;;;;5051451;28;19962;-83
2022/09/12 07:01:39;;;;;;;;;;;14.60;99.90;;;;;;5051384;28;19916;-83
2022/09/12 07:04:05;;;;;;;;;;;14.80;99.90;;;;;;5054188;28;19916;-83
2022/09/12 07:06:34;;;;;;;;;;;14.90;99.90;;;;;;5054557;28;19943;-83
2022/09/12 07:09:01;;;;;;;;;;;15.00;99.90;;;;;;5054954;28;19924;-83
2022/09/12 07:11:30;;;;;;;;;;;15.10;99.90;;;;;;5055137;28;20034;-83
2022/09/12 07:13:56;;;;;;;;;;;15.20;99.90;;;;;;5055043;28;20391;-83
2022/09/12 07:16:22;;;;;;;;;;;15.10;99.90;;;;;;5052342;28;19916;-83
2022/09/12 07:18:52;;;;;;;;;;;15.30;99.90;;;;;;5056150;28;19961;-83
2022/09/12 07:21:18;;;;;;;;;;;15.10;99.90;;;;;;5053863;28;19955;-83
2022/09/12 07:23:44;;;;;;;;;;;15.40;99.90;;;;;;5055499;28;19951;-83
2022/09/12 07:26:10;;;;;;;;;;;15.30;99.90;;;;;;5054900;28;19927;-82
2022/09/12 07:28:36;;;;;;;;;;;15.40;99.90;;;;;;5033402;28;20023;-83
2022/09/12 07:31:09;;;;;;;;;;;15.70;99.90;;;;;;5053674;28;20013;-83
2022/09/12 07:33:35;;;;;;;;;;;15.80;99.90;;;;;;5055618;28;19932;-83
2022/09/12 07:36:02;;;;;;;;;;;15.80;99.90;;;;;;5054064;28;19920;-84
2022/09/12 07:38:28;;;;;;;;;;;15.90;99.90;;;;;;5054441;28;20256;-82
2022/09/12 07:40:54;;;;;;;;;;;15.90;99.90;;;;;;5029100;28;19930;-82
2022/09/12 07:43:19;;;;;;;;;;;16.00;99.90;;;;;;5055180;28;19920;-82
2022/09/12 07:45:46;;;;;;;;;;;16.10;99.90;;;;;;5054713;28;20266;-82
2022/09/12 07:48:12;;;;;;;;;;;15.90;99.90;;;;;;5054003;28;19920;-82
2022/09/12 07:50:38;;;;;;;;;;;16.00;99.90;;;;;;5052404;28;19988;-82
2022/09/12 07:53:04;;;;;;;;;;;16.00;99.90;;;;;;5028458;28;19968;-83
2022/09/12 07:55:30;;;;;;;;;;;16.30;99.90;;;;;;5048000;28;19932;-83
2022/09/12 07:57:55;;;;;;;;;;;16.20;99.90;;;;;;5054390;28;19916;-83
2022/09/12 08:00:21;;;;;;;;;;;16.20;99.90;;;;;;5054525;28;19927;-82
2022/09/12 08:02:51;;;;;;;;;;;16.30;99.90;;;;;;5054430;28;19920;-81
2022/09/12 08:05:16;;;;;;;;;;;16.50;99.90;;;;;;5053951;28;19939;-81
2022/09/12 08:07:42;;;;;;;;;;;16.50;99.90;;;;;;5047098;28;20383;-80
2022/09/12 08:10:08;;;;;;;;;;;16.60;99.90;;;;;;5050861;28;19928;-80
2022/09/12 08:12:34;;;;;;;;;;;16.60;99.90;;;;;;5048604;28;19971;-79
2022/09/12 08:14:59;;;;;;;;;;;16.60;99.90;;;;;;5048881;28;20344;-81
2022/09/12 08:17:25;;;;;;;;;;;16.70;99.90;;;;;;5054894;28;19947;-81
2022/09/12 08:19:51;;;;;;;;;;;16.60;99.90;;;;;;5051935;28;19916;-81
2022/09/12 08:22:20;;;;;;;;;;;16.60;99.90;;;;;;5050017;28;20350;-81
2022/09/12 08:24:46;;;;;;;;;;;16.70;99.90;;;;;;5054317;28;20340;-81
2022/09/12 08:27:13;;;;;;;;;;;16.80;99.90;;;;;;5032700;28;19956;-75
2022/09/12 08:29:39;;;;;;;;;;;16.80;99.90;;;;;;5050201;28;19920;-74
2022/09/12 08:32:04;;;;;;;;;;;17.00;99.90;;;;;;5034023;28;19966;-74
2022/09/12 08:34:30;;;;;;;;;;;17.00;99.90;;;;;;5052137;28;20369;-74
2022/09/12 08:36:56;;;;;;;;;;;17.20;99.90;;;;;;5044151;28;19916;-75
2022/09/12 08:39:23;;;;;;;;;;;17.20;99.90;;;;;;5033087;28;19945;-74
2022/09/12 08:41:56;;;;;;;;;;;17.40;99.90;;;;;;5052434;28;20011;-75
2022/09/12 08:44:30;;;;;;;;;;;17.50;99.90;;;;;;5053627;28;19967;-75
2022/09/12 08:47:08;;;;;;;;;;;17.60;99.90;;;;;;5053819;28;20282;-75
2022/09/12 08:49:34;;;;;;;;;;;17.70;99.90;;;;;;5050254;28;19920;-75
2022/09/12 08:52:04;;;;;;;;;;;17.90;99.90;;;;;;5048112;28;20506;-75
2022/09/12 08:54:30;;;;;;;;;;;17.90;99.90;;;;;;5053063;28;19920;-75
2022/09/12 08:57:07;;;;;;;;;;;17.80;99.90;;;;;;5052959;28;19920;-75
2022/09/12 08:59:43;;;;;;;;;;;18.00;99.90;;;;;;5052790;28;19969;-75
2022/09/12 09:02:28;;;;;;;;;;;18.00;99.90;;;;;;5023746;28;20331;-75
2022/09/12 09:05:29;;;;;;;;;;;18.00;99.90;;;;;;5035525;28;19956;-75
2022/09/12 09:07:57;;;;;;;;;;;18.00;99.90;;;;;;4972154;28;19928;-75
2022/09/12 09:10:26;;;;;;;;;;;18.20;99.90;;;;;;5031528;28;19989;-72
2022/09/12 09:12:59;;;;;;;;;;;18.20;99.90;;;;;;5031047;28;19952;-81
2022/09/12 09:15:31;;;;;;;;;;;18.30;99.90;;;;;;5053932;28;19990;-81
2022/09/12 09:18:05;;;;;;;;;;;18.40;99.90;;;;;;5054057;28;20007;-82
2022/09/12 09:20:35;;;;;;;;;;;18.50;99.90;;;;;;5031201;28;20003;-81
2022/09/12 09:23:12;;;;;;;;;;;18.70;99.90;;;;;;5054499;28;19924;-82
2022/09/12 09:25:50;;;;;;;;;;;18.90;99.90;;;;;;5050556;28;19916;-82
2022/09/12 09:28:19;;;;;;;;;;;18.90;99.90;;;;;;5053770;28;19916;-83
2022/09/12 09:30:45;;;;;;;;;;;19.00;99.90;;;;;;5051044;28;20436;-81
2022/09/12 09:33:17;;;;;;;;;;;19.10;99.90;;;;;;5054994;28;19966;-82
2022/09/12 09:35:43;;;;;;;;;;;19.10;99.90;;;;;;5049717;28;19917;-82
2022/09/12 09:38:28;;;;;;;;;;;19.20;99.90;;;;;;5055052;28;19946;-82
2022/09/12 09:41:11;;;;;;;;;;;19.30;99.90;;;;;;5053626;28;19928;-74
2022/09/12 09:43:37;;;;;;;;;;;19.40;99.90;;;;;;5050213;28;19920;-75
2022/09/12 09:46:03;;;;;;;;;;;19.50;99.90;;;;;;5052352;28;20271;-74
2022/09/12 09:48:28;;;;;;;;;;;19.60;99.90;;;;;;5032612;28;19932;-74
2022/09/12 09:50:56;;;;;;;;;;;19.90;99.90;;;;;;5049701;28;20065;-74
2022/09/12 09:53:30;;;;;;;;;;;20.10;99.90;;;;;;5066026;28;20003;-74
2022/09/12 09:55:59;;;;;;;;;;;20.20;99.90;;;;;;5054304;28;19966;-83
2022/09/12 09:58:28;;;;;;;;;;;20.10;99.90;;;;;;5063291;28;19939;-82
2022/09/12 10:00:58;;;;;;;;;;;20.20;99.90;;;;;;5036702;28;19922;-74
2022/09/12 10:03:27;;;;;;;;;;;20.30;99.90;;;;;;5066724;28;19920;-74
2022/09/12 10:05:55;;;;;;;;;;;20.50;99.90;;;;;;5036196;28;20306;-74
2022/09/12 10:08:25;;;;;;;;;;;20.60;99.90;;;;;;5058231;28;19916;-75
2022/09/12 10:10:54;;;;;;;;;;;20.80;99.90;;;;;;5051978;28;19963;-74
2022/09/12 10:13:26;;;;;;;;;;;21.00;99.90;;;;;;5035996;28;20456;-74
2022/09/12 10:15:56;;;;;;;;;;;21.20;99.90;;;;;;5051975;28;19955;-74
2022/09/12 10:18:48;;;;;;;;;;;21.40;99.90;;;;;;5052338;28;19942;-74
2022/09/12 10:21:17;;;;;;;;;;;21.60;99.90;;;;;;5049423;28;20428;-74
2022/09/12 10:23:43;;;;;;;;;;;21.60;99.90;;;;;;5035459;28;20379;-75
2022/09/12 10:26:13;;;;;;;;;;;21.60;99.90;;;;;;5051384;28;20027;-73
2022/09/12 10:28:42;;;;;;;;;;;21.70;99.90;;;;;;5051660;28;19968;-74
2022/09/12 10:31:12;;;;;;;;;;;22.00;99.90;;;;;;5052594;28;19916;-74
2022/09/12 10:33:42;;;;;;;;;;;22.10;99.90;;;;;;5030823;28;19973;-74
2022/09/12 10:36:08;;;;;;;;;;;22.20;99.90;;;;;;5045348;28;20292;-74
2022/09/12 10:38:34;;;;;;;;;;;22.40;99.90;;;;;;5051002;28;19926;-74
2022/09/12 10:41:07;;;;;;;;;;;22.70;99.90;;;;;;5052524;28;20025;-74
2022/09/12 10:43:32;;;;;;;;;;;22.80;99.90;;;;;;5052382;28;19963;-73
2022/09/12 10:46:24;;;;;;;;;;;23.10;99.90;;;;;;5052243;28;19947;-73
2022/09/12 10:48:51;;;;;;;;;;;23.00;99.90;;;;;;5047984;28;19928;-73
2022/09/12 10:51:23;;;;;;;;;;;23.10;99.90;;;;;;5051940;28;20017;-76
2022/09/12 10:53:50;;;;;;;;;;;23.20;99.90;;;;;;5036062;28;20284;-73
2022/09/12 10:56:23;;;;;;;;;;;23.20;99.90;;;;;;5053401;28;19920;-73
2022/09/12 10:58:58;;;;;;;;;;;23.30;99.90;;;;;;5052974;28;19925;-73
2022/09/12 11:01:44;;;;;;;;;;;23.20;99.90;;;;;;5052718;28;20009;-73
2022/09/12 11:04:19;;;;;;;;;;;23.20;99.90;;;;;;5036231;28;19920;-73
2022/09/12 11:06:47;;;;;;;;;;;23.40;99.90;;;;;;5053044;28;19943;-74
2022/09/12 11:09:24;;;;;;;;;;;23.50;99.90;;;;;;5036195;28;19921;-73
2022/09/12 11:11:56;;;;;;;;;;;23.50;99.60;;;;;;5036351;28;19927;-74
2022/09/12 11:14:24;;;;;;;;;;;23.50;99.00;;;;;;5052911;28;19916;-73
2022/09/12 11:17:03;;;;;;;;;;;23.70;99.80;;;;;;5050408;28;19963;-74
2022/09/12 11:19:37;;;;;;;;;;;23.80;99.60;;;;;;5043456;28;19999;-83
2022/09/12 11:22:25;;;;;;;;;;;24.00;99.40;;;;;;5056704;28;19955;-82
2022/09/12 11:25:05;;;;;;;;;;;24.10;98.70;;;;;;5039816;28;19916;-81
2022/09/12 11:27:49;;;;;;;;;;;24.10;99.10;;;;;;5053230;28;20015;-82
2022/09/12 11:30:16;;;;;;;;;;;24.40;99.10;;;;;;5052580;28;19974;-74
2022/09/12 11:32:54;;;;;;;;;;;24.50;98.50;;;;;;5052773;28;20441;-72
2022/09/12 11:35:19;;;;;;;;;;;24.70;98.30;;;;;;5052996;28;19995;-73
2022/09/12 11:37:51;;;;;;;;;;;24.80;98.00;;;;;;5052648;28;20014;-73
2022/09/12 11:40:16;;;;;;;;;;;24.80;97.90;;;;;;5036196;28;19995;-73
2022/09/12 11:42:43;;;;;;;;;;;24.90;98.00;;;;;;5052539;28;20344;-73
2022/09/12 11:45:14;;;;;;;;;;;24.90;97.60;;;;;;5035959;28;19920;-73
2022/09/12 11:47:43;;;;;;;;;;;24.80;97.50;;;;;;5052369;28;19916;-72
2022/09/12 11:50:20;;;;;;;;;;;24.80;96.80;;;;;;5053134;28;19958;-72
2022/09/12 11:52:46;;;;;;;;;;;24.90;96.80;;;;;;5056084;28;19916;-73
2022/09/12 11:55:24;;;;;;;;;;;24.80;95.90;;;;;;5056184;28;19920;-73
2022/09/12 11:57:57;;;;;;;;;;;24.90;96.30;;;;;;5056055;28;20015;-72
2022/09/12 12:00:36;;;;;;;;;;;25.20;96.40;;;;;;5023295;28;19917;-73
2022/09/12 12:03:06;;;;;;;;;;;25.10;96.20;;;;;;5050849;28;20402;-73
2022/09/12 12:05:54;;;;;;;;;;;25.10;97.30;;;;;;5055881;28;19917;-73
2022/09/12 12:08:21;;;;;;;;;;;25.00;97.30;;;;;;5055630;28;20396;-73
2022/09/12 12:10:50;;;;;;;;;;;25.00;96.70;;;;;;5056161;28;20293;-73
2022/09/12 12:13:21;;;;;;;;;;;25.00;97.10;;;;;;5056007;28;20295;-73
2022/09/12 12:15:49;;;;;;;;;;;24.70;96.10;;;;;;5055663;28;19920;-74
2022/09/12 12:18:14;;;;;;;;;;;24.50;97.00;;;;;;5039379;28;20370;-82
2022/09/12 12:20:40;;;;;;;;;;;24.40;97.30;;;;;;5025491;28;19920;-82
2022/09/12 12:23:06;;;;;;;;;;;24.40;97.50;;;;;;5039250;28;19921;-82
2022/09/12 12:25:50;;;;;;;;;;;24.70;96.90;;;;;;5055420;28;20405;-81
2022/09/12 12:28:36;;;;;;;;;;;24.90;96.40;;;;;;5039225;28;19920;-82
2022/09/12 12:31:02;;;;;;;;;;;25.10;96.40;;;;;;5022685;28;19923;-81
2022/09/12 12:33:27;;;;;;;;;;;25.20;96.50;;;;;;5049152;28;19916;-82
2022/09/12 12:35:53;;;;;;;;;;;25.10;95.80;;;;;;5055249;28;20006;-82
2022/09/12 12:38:27;;;;;;;;;;;24.90;95.40;;;;;;5055605;28;19927;-74
2022/09/12 12:40:52;;;;;;;;;;;24.70;96.40;;;;;;5055078;28;20006;-74
2022/09/12 12:43:30;;;;;;;;;;;24.70;95.50;;;;;;5055907;28;19982;-73
2022/09/12 12:46:01;;;;;;;;;;;24.60;94.90;;;;;;5055086;28;19920;-74
2022/09/12 12:48:28;;;;;;;;;;;24.60;95.60;;;;;;5066615;28;19928;-82
2022/09/12 12:51:13;;;;;;;;;;;24.60;95.10;;;;;;5018849;28;19971;-81
2022/09/12 12:53:40;;;;;;;;;;;24.50;95.30;;;;;;5035407;28;19939;-80
2022/09/12 12:56:23;;;;;;;;;;;24.50;95.80;;;;;;5055167;28;19923;-80
2022/09/12 12:58:56;;;;;;;;;;;24.40;95.80;;;;;;5047109;28;19929;-81
2022/09/12 13:01:22;;;;;;;;;;;24.60;96.00;;;;;;5049740;28;19916;-81
2022/09/12 13:04:13;;;;;;;;;;;24.80;95.70;;;;;;5054890;28;19917;-81
2022/09/12 13:06:43;;;;;;;;;;;25.10;95.60;;;;;;5049782;28;19999;-80
2022/09/12 13:09:24;;;;;;;;;;;24.90;94.80;;;;;;5054855;28;19997;-81
2022/09/12 13:11:58;;;;;;;;;;;24.70;94.70;;;;;;5035413;28;20302;-81
2022/09/12 13:14:42;;;;;;;;;;;24.90;95.40;;;;;;5045077;28;19927;-81
2022/09/12 13:17:15;;;;;;;;;;;24.90;94.50;;;;;;5054764;28;20279;-81
2022/09/12 13:19:41;;;;;;;;;;;25.00;94.50;;;;;;5043003;28;20299;-81
2022/09/12 13:22:08;;;;;;;;;;;25.10;94.10;;;;;;5052216;28;19923;-81
2022/09/12 13:24:45;;;;;;;;;;;25.30;94.20;;;;;;5054508;28;19920;-80
2022/09/12 13:27:18;;;;;;;;;;;25.50;94.00;;;;;;5057612;28;19931;-81
2022/09/12 13:29:44;;;;;;;;;;;25.50;94.20;;;;;;5030321;28;20003;-80
2022/09/12 13:32:10;;;;;;;;;;;25.70;94.50;;;;;;5060616;28;20061;-81
2022/09/12 13:34:50;;;;;;;;;;;25.70;94.20;;;;;;5053179;28;19927;-82
2022/09/12 13:37:25;;;;;;;;;;;25.60;94.10;;;;;;5072426;28;20322;-81
2022/09/12 13:39:54;;;;;;;;;;;25.50;94.40;;;;;;5045182;28;19989;-82
2022/09/12 13:42:19;;;;;;;;;;;25.60;94.10;;;;;;5054500;28;19920;-82
2022/09/12 13:45:01;;;;;;;;;;;25.50;94.20;;;;;;5053499;28;19924;-81
2022/09/12 13:47:34;;;;;;;;;;;25.70;95.30;;;;;;5047141;28;19917;-81
2022/09/12 13:50:00;;;;;;;;;;;25.60;94.10;;;;;;5038221;28;19931;-74
2022/09/12 13:52:28;;;;;;;;;;;25.80;94.70;;;;;;5053237;28;19955;-73
2022/09/12 13:54:57;;;;;;;;;;;25.60;93.90;;;;;;5054565;28;19923;-73
2022/09/12 13:57:30;;;;;;;;;;;25.40;94.10;;;;;;5052415;28;19962;-73
2022/09/12 13:59:56;;;;;;;;;;;25.20;94.20;;;;;;5052768;28;20315;-73
2022/09/12 14:02:23;;;;;;;;;;;25.30;94.80;;;;;;5052985;28;19923;-73
2022/09/12 14:05:09;;;;;;;;;;;25.10;94.80;;;;;;5053233;28;19916;-73
2022/09/12 14:07:53;;;;;;;;;;;25.00;95.00;;;;;;5052847;28;20049;-73
2022/09/12 14:10:33;;;;;;;;;;;24.70;93.80;;;;;;5052654;28;19921;-82
2022/09/12 14:12:59;;;;;;;;;;;24.50;94.60;;;;;;5052289;28;19952;-82
2022/09/12 14:15:30;;;;;;;;;;;24.20;94.30;;;;;;5052994;28;20376;-83
2022/09/12 14:17:58;;;;;;;;;;;24.10;94.80;;;;;;5053827;28;19927;-74
2022/09/12 14:20:24;;;;;;;;;;;24.10;95.20;;;;;;5052431;28;19965;-74
2022/09/12 14:22:50;;;;;;;;;;;24.20;95.50;;;;;;5052727;28;20041;-74
2022/09/12 14:25:18;;;;;;;;;;;24.20;95.40;;;;;;5053062;28;19921;-74
2022/09/12 14:27:46;;;;;;;;;;;24.20;95.00;;;;;;5053625;28;19916;-74
2022/09/12 14:30:18;;;;;;;;;;;24.10;95.40;;;;;;5052201;28;20024;-74